• Join FlightAware (Why Join?)
  • Login
  • US Flag 
07:21AM EDT


 

Airport Tracker/Info


-or-


 

Live Flight TrackerFlight Track Log ✈ DAL268 ✈ 20-Sep-2013 ✈ KJFK - LLBG / TLV

Flight Track Log - Related Links

Times and Time Zones

All times are in EDT time to prevent confusion due to time zone crossing. See the DAL268 flight status page for this flight to view local times or setup timezone preferences in your user account.

Time Position Orientation Groundspeed Altitude Reporting Facility
EDT Latitude Longitude Course Direction KTS MPH feet Rate Location/Type
09:26PM 40.6760 -73.8140 270° West 115 132  Level FlightAware
09:26PM 40.6680 -73.7970 122° Southeast 175 201 540 Level FlightAware
09:27PM 40.6600 -73.7770 118° Southeast 180 207 400 1,500 Climbing FlightAware
09:27PM 40.6530 -73.7640 125° Southeast 176 203 900 1,500 Climbing FlightAware
09:27PM 40.6410 -73.7490 137° Southeast 183 211 1,300 900 Climbing FlightAware
09:27PM 40.6260 -73.7330 141° Southeast 209 241 1,500 780 Climbing FlightAware
09:28PM 40.6150 -73.7180 134° Southeast 224 258 1,800 1,020 Climbing FlightAware
09:28PM 40.6080 -73.7030 122° Southeast 239 275 2,000 720 Climbing FlightAware
09:28PM 40.6020 -73.6760 106° East 259 298 2,200 1,260 Climbing FlightAware
09:29PM 40.5940 -73.6410 107° East 272 313 2,900 1,860 Climbing FlightAware
09:29PM 40.5850 -73.6060 109° East 283 326 3,600 2,220 Climbing FlightAware
09:29PM 40.5760 -73.5720 109° East 289 333 4,500 2,520 Climbing FlightAware
09:30PM 40.5670 -73.5380 109° East 293 337 5,300 2,400 Climbing FlightAware
09:30PM 40.5580 -73.5040 109° East 298 343 6,100 2,400 Climbing FlightAware
09:30PM 40.5490 -73.4690 109° East 302 348 6,900 2,340 Climbing FlightAware
09:31PM 40.5360 -73.4250 111° Southeast 306 352 7,900 2,340 Climbing FlightAware
09:31PM 40.5270 -73.3910 109° East 309 356 8,700 2,400 Climbing FlightAware
09:31PM 40.5180 -73.3530 107° East 313 360 9,500 2,100 Climbing FlightAware
09:32PM 40.5000 -73.2870 110° East 325 374 10,700 1,380 Climbing FlightAware
09:33PM 40.4830 -73.2230 109° East 357 411 11,100 840 Climbing FlightAware
09:33PM 40.4640 -73.1480 108° East 386 444 11,700 1,140 Climbing FlightAware
09:34PM 40.4420 -73.0660 109° East 409 471 12,500 1,320 Climbing FlightAware
09:34PM 40.4310 -73.0110 105° East 421 484 13,000 1,680 Climbing FlightAware
09:35PM 40.4350 -72.9420 86° East 427 491 13,900 1,860 Climbing FlightAware
09:35PM 40.4530 -72.8590 74° East 437 503 14,900 1,860 Climbing FlightAware
09:36PM 40.4750 -72.7630 73° East 443 510 16,100 1,800 Climbing FlightAware
09:36PM 40.4950 -72.6780 73° East 451 519 17,000 1,620 Climbing FlightAware
09:37PM 40.5210 -72.5630 73° East 458 527 18,200 1,680 Climbing FlightAware
09:38PM 40.5420 -72.4690 74° East 460 529 19,300 1,680 Climbing FlightAware
09:38PM 40.5670 -72.3550 74° East 465 535 20,400 1,440 Climbing FlightAware
09:39PM 40.5870 -72.2640 74° East 470 541 21,100 1,320 Climbing FlightAware
09:40PM 40.6170 -72.1260 74° East 474 545 22,300 1,440 Climbing FlightAware
09:40PM 40.6400 -72.0240 73° East 476 548 23,200 1,320 Climbing FlightAware
09:41PM 40.6600 -71.9280 75° East 478 550 23,900 1,200 Climbing FlightAware
09:41PM 40.6810 -71.8370 73° East 482 555 24,600 1,020 Climbing FlightAware
09:42PM 40.7040 -71.7300 74° East 488 562 25,100 840 Climbing FlightAware
09:43PM 40.7260 -71.6250 75° East 492 566 25,700 1,080 Climbing FlightAware
09:43PM 40.7460 -71.5310 74° East 491 565 26,400 1,440 Climbing FlightAware
09:44PM 40.7670 -71.4340 74° East 484 557 27,300 1,560 Climbing FlightAware
09:44PM 40.7890 -71.3470 72° East 481 554 28,100 1,320 Climbing FlightAware
09:45PM 40.8240 -71.2430 66° East 480 552 28,900 1,200 Climbing FlightAware
09:46PM 40.8580 -71.1470 65° Northeast 477 549 29,600 1,140 Climbing FlightAware
09:46PM 40.8920 -71.0520 65° Northeast 472 543 30,300 1,200 Climbing FlightAware
09:47PM 40.9230 -70.9650 65° Northeast 469 540 31,000 600 Climbing FlightAware
09:47PM 40.9580 -70.8680 64° Northeast 469 540 31,000  Level FlightAware
09:48PM 40.9880 -70.7820 65° Northeast 468 539 31,000  Level FlightAware
09:48PM 41.0190 -70.6950 65° Northeast 466 536 31,000  Level FlightAware
09:49PM 41.0530 -70.6010 64° Northeast 467 537 31,000  Level FlightAware
09:50PM 41.0820 -70.5170 65° Northeast 350 403 31,000  Level FlightAware
09:50PM 41.1220 -70.4050 65° Northeast 468 539 31,000  Level FlightAware
09:51PM 41.1520 -70.3170 66° East 469 540 31,000  Level FlightAware
09:52PM 41.1820 -70.2330 65° Northeast 469 540 31,000  Level FlightAware
09:52PM 41.2280 -70.0970 66° East 472 543 31,000  Level FlightAware
09:53PM 41.2570 -70.0170 64° Northeast 472 543 31,000  Level FlightAware
09:54PM 41.2850 -69.9360 65° Northeast 472 543 31,000  Level FlightAware
09:54PM 41.3130 -69.8560 65° Northeast 472 543 31,000  Level FlightAware
09:55PM 41.3410 -69.7750 65° Northeast 472 543 31,000  Level FlightAware
09:55PM 41.3690 -69.6940 65° Northeast 472 543 31,000  Level FlightAware
09:57PM 41.4000 -69.4167 65° Northeast 480 552 31,000  Level Moncton Center
10:02PM 41.7410 -68.5660 65° Northeast 480 552 31,000  Level FlightAware
10:03PM 41.7690 -68.4830 66° East 480 552 31,000  Level FlightAware
10:03PM 41.7960 -68.3990 67° East 480 552 31,000  Level FlightAware
10:04PM 41.8240 -68.3160 66° East 480 552 31,000  Level FlightAware
10:05PM 41.8520 -68.2330 66° East 480 552 31,000  Level FlightAware
10:05PM 41.8790 -68.1490 67° East 480 552 31,000  Level FlightAware
10:06PM 41.9070 -68.0660 66° East 480 552 31,000  Level FlightAware
10:06PM 41.9340 -67.9820 67° East 480 552 31,000  Level FlightAware
10:07PM 41.9620 -67.8990 66° East 480 552 31,000  Level FlightAware
10:08PM 41.9900 -67.8130 66° East 480 552 31,000  Level FlightAware
10:08PM 42.0180 -67.7300 66° East 480 552 31,000  Level FlightAware
10:09PM 42.0460 -67.6460 66° East 480 552 31,000  Level FlightAware
10:10PM 42.1840 -67.1550 69° East 493 567 31,000  Level FlightAware
10:11PM 42.2100 -67.0710 67° East 494 568 31,000  Level FlightAware
10:12PM 42.2490 -66.9430 68° East 494 568 31,000  Level FlightAware
10:12PM 42.2790 -66.8490 67° East 494 568 31,000  Level FlightAware
10:13PM 42.3090 -66.7490 68° East 495 570 31,000  Level FlightAware
10:13PM 42.3460 -66.6260 68° East 496 571 31,000  Level FlightAware
10:14PM 42.3720 -66.5380 68° East 496 571 31,000  Level FlightAware
10:15PM 42.3980 -66.4500 68° East 496 571 31,000  Level FlightAware
10:15PM 42.4470 -66.2940 67° East 499 574 31,000  Level FlightAware
10:16PM 42.4870 -66.1640 67° East 500 575 31,000  Level FlightAware
10:17PM 42.5190 -66.0580 68° East 501 577 31,000  Level FlightAware
10:17PM 42.5520 -65.9460 68° East 501 577 31,000  Level FlightAware
10:18PM 42.5880 -65.8250 68° East 502 578 31,000  Level FlightAware
10:19PM 42.6240 -65.7070 67° East 502 578 31,000  Level FlightAware
10:19PM 42.6610 -65.5810 68° East 502 578 31,000  Level FlightAware
10:20PM 42.6920 -65.4760 68° East 503 579 31,000  Level FlightAware
10:21PM 42.7290 -65.3510 68° East 504 580 31,000  Level FlightAware
10:21PM 42.7630 -65.2360 68° East 505 581 31,000  Level FlightAware
10:22PM 42.7930 -65.1340 68° East 505 581 31,000  Level FlightAware
10:23PM 42.8360 -64.9850 68° East 505 581 31,000  Level FlightAware
10:23PM 42.8670 -64.8760 69° East 506 582 31,000  Level FlightAware
10:24PM 42.9040 -64.7500 68° East 507 583 31,000  Level FlightAware
10:25PM 42.9320 -64.6520 69° East 508 585 31,000  Level FlightAware
10:25PM 42.9640 -64.5420 68° East 510 587 31,000  Level FlightAware
10:26PM 42.9950 -64.4320 69° East 511 588 31,000  Level FlightAware
10:26PM 43.0240 -64.3300 69° East 511 588 31,000  Level FlightAware
10:27PM 43.0590 -64.2080 69° East 513 590 31,000  Level FlightAware
10:28PM 43.0830 -64.1210 69° East 513 590 31,000  Level FlightAware
10:28PM 43.1130 -64.0140 69° East 513 590 31,000  Level FlightAware
10:29PM 43.1480 -63.8900 69° East 515 593 31,000  Level FlightAware
10:29PM 43.1720 -63.8060 69° East 515 593 31,000  Level FlightAware
10:30PM 43.2080 -63.6760 69° East 516 594 31,000  Level FlightAware
10:30PM 43.2330 -63.5870 69° East 517 595 31,000  Level FlightAware
10:31PM 43.2620 -63.4820 69° East 517 595 31,000  Level FlightAware
10:32PM 43.2930 -63.3700 69° East 517 595 31,000  Level FlightAware
10:32PM 43.3250 -63.2550 69° East 517 595 31,000  Level FlightAware
10:33PM 43.3500 -63.1620 70° East 517 595 31,000  Level FlightAware
10:33PM 43.3860 -63.0320 69° East 518 596 31,000  Level FlightAware
10:34PM 43.4220 -62.8990 70° East 519 597 31,000  Level FlightAware
10:35PM 43.4590 -62.7580 70° East 519 597 31,000  Level FlightAware
10:35PM 43.4850 -62.6650 69° East 519 597 31,000  Level FlightAware
10:36PM 43.5190 -62.5380 70° East 520 598 31,000  Level FlightAware
10:37PM 43.5510 -62.4150 70° East 520 598 31,000  Level FlightAware
10:38PM 43.5970 -62.2440 70° East 519 597 31,000  Level FlightAware
10:38PM 43.6220 -62.1480 70° East 518 596 31,000  Level FlightAware
10:39PM 43.6580 -62.0150 69° East 517 595 31,000  Level FlightAware
10:40PM 43.6900 -61.8920 70° East 517 595 31,000  Level FlightAware
10:40PM 43.7200 -61.7770 70° East 516 594 31,000  Level FlightAware
10:41PM 43.7530 -61.6480 70° East 516 594 31,000  Level FlightAware
10:42PM 43.7820 -61.5370 70° East 516 594 31,000  Level FlightAware
10:42PM 43.8230 -61.3730 71° East 516 594 31,000  Level FlightAware
10:43PM 43.8470 -61.2770 71° East 516 594 31,000  Level FlightAware
10:44PM 43.8710 -61.1810 71° East 516 594 31,000  Level FlightAware
10:44PM 43.8950 -61.0830 71° East 516 594 31,000  Level FlightAware
10:45PM 43.9190 -60.9870 71° East 516 594 31,000  Level FlightAware
10:45PM 43.9430 -60.8910 71° East 516 594 31,000  Level FlightAware
10:46PM 43.9670 -60.7920 71° East 516 594 31,000  Level FlightAware
10:47PM 43.9920 -60.6940 70° East 516 594 31,000  Level FlightAware
10:47PM 44.0160 -60.5980 71° East 516 594 31,000  Level FlightAware
10:48PM 44.0390 -60.5020 72° East 516 594 31,000  Level FlightAware
10:48PM 44.0630 -60.4060 71° East 516 594 31,000  Level FlightAware
10:49PM 44.0870 -60.3090 71° East 516 594 31,000  Level FlightAware
10:50PM 44.1110 -60.2130 71° East 516 594 31,000  Level FlightAware
10:50PM 44.1340 -60.1170 72° East 516 594 31,000  Level FlightAware
10:51PM 44.2250 -59.7490 71° East 527 606 31,000  Level FlightAware
10:51PM 44.2520 -59.6370 71° East 528 608 31,000  Level FlightAware
10:52PM 44.2780 -59.5250 72° East 528 608 31,000  Level FlightAware
10:53PM 44.3200 -59.3520 71° East 527 606 31,000  Level FlightAware
10:54PM 44.3520 -59.2120 72° East 527 606 31,000  Level FlightAware
10:54PM 44.3790 -59.0950 72° East 528 608 31,000  Level FlightAware
10:55PM 44.4020 -58.9920 73° East 527 606 31,000  Level FlightAware
10:55PM 44.4280 -58.8820 72° East 526 605 31,000  Level FlightAware
10:56PM 44.4530 -58.7730 72° East 526 605 31,000  Level FlightAware
10:57PM 44.4820 -58.6430 73° East 526 605 31,000  Level FlightAware
10:57PM 44.5060 -58.5370 72° East 526 605 31,000  Level FlightAware
10:58PM 44.5330 -58.4180 72° East 526 605 31,000  Level FlightAware
10:58PM 44.5590 -58.3040 72° East 527 606 31,000  Level FlightAware
10:59PM 44.5850 -58.1850 73° East 526 605 31,000  Level FlightAware
10:59PM 44.6110 -58.0700 72° East 527 606 31,000  Level FlightAware
11:00PM 44.6340 -57.9630 73° East 527 606 31,000  Level FlightAware
11:01PM 44.6590 -57.8480 73° East 528 608 31,000  Level FlightAware
11:01PM 44.6850 -57.7280 73° East 527 606 31,000  Level FlightAware
11:02PM 44.7070 -57.6230 74° East 527 606 31,000  Level FlightAware
11:02PM 44.7290 -57.5190 73° East 527 606 31,000  Level FlightAware
11:03PM 44.7520 -57.4160 73° East 527 606 31,000  Level FlightAware
11:04PM 44.7810 -57.2680 75° East 524 603 31,000  Level FlightAware
11:04PM 44.8040 -57.1610 73° East 522 601 31,000  Level FlightAware
11:05PM 44.8260 -57.0620 73° East 522 601 31,000  Level FlightAware
11:06PM 44.8660 -56.8590 74° East 520 598 31,000  Level FlightAware
11:06PM 44.8880 -56.7600 73° East 520 598 31,000  Level FlightAware
11:07PM 44.9090 -56.6610 73° East 520 598 31,000  Level FlightAware
11:08PM 44.9320 -56.5590 72° East 520 598 31,000  Level FlightAware
11:08PM 44.9540 -56.4560 73° East 520 598 31,000  Level FlightAware
11:09PM 44.9750 -56.3570 73° East 520 598 31,000  Level FlightAware
11:09PM 44.9970 -56.2570 73° East 520 598 31,000  Level FlightAware
11:10PM 45.0180 -56.1580 73° East 520 598 31,000  Level FlightAware
11:11PM 45.0390 -56.0610 73° East 520 598 31,000  Level FlightAware
11:11PM 45.0610 -55.9580 73° East 520 598 31,000  Level FlightAware
11:12PM 45.0830 -55.8590 72° East 520 598 31,000  Level FlightAware
11:12PM 45.1040 -55.7590 73° East 520 598 31,000  Level FlightAware
11:13PM 45.1260 -55.6590 73° East 520 598 31,000  Level FlightAware
11:14PM 45.1470 -55.5590 73° East 520 598 31,000  Level FlightAware
11:14PM 45.1690 -55.4600 72° East 520 598 31,000  Level FlightAware
11:15PM 45.1890 -55.3650 73° East 520 598 31,000 480 Level FlightAware
11:18PM 45.3400 -54.4590 76° East 518 596 33,000 480 Climbing FlightAware
11:19PM 45.3600 -54.3530 75° East 518 596 33,000  Level FlightAware
11:19PM 45.3790 -54.2490 75° East 518 596 33,000  Level FlightAware
11:20PM 45.3980 -54.1480 75° East 518 596 33,000  Level FlightAware
11:20PM 45.4170 -54.0470 75° East 518 596 33,000  Level FlightAware
11:21PM 45.4360 -53.9460 75° East 518 596 33,000  Level FlightAware
11:22PM 45.4550 -53.8450 75° East 518 596 33,000  Level FlightAware
11:22PM 45.4740 -53.7420 75° East 518 596 33,000  Level FlightAware
11:23PM 45.4940 -53.6380 75° East 518 596 33,000  Level FlightAware
11:23PM 45.5130 -53.5370 75° East 518 596 33,000  Level FlightAware
11:24PM 45.5320 -53.4360 75° East 518 596 33,000  Level FlightAware
11:25PM 45.5510 -53.3340 75° East 518 596 33,000  Level FlightAware
11:25PM 45.5700 -53.2300 75° East 518 596 33,000  Level FlightAware
11:26PM 45.5890 -53.1290 75° East 518 596 33,000  Level FlightAware
11:26PM 45.6090 -53.0250 75° East 518 596 33,000  Level FlightAware
11:27PM 45.6280 -52.9240 75° East 518 596 33,000  Level FlightAware
11:28PM 45.6470 -52.8230 75° East 518 596 33,000 1,320 Level FlightAware
11:29PM 45.6167 -52.3000 75° East 510 587 35,000 1,020 Climbing Gander Center
11:30PM 45.6500 -52.1000 77° East 510 587 35,000  Level Gander Center
11:31PM 45.6833 -51.9000 77° East 520 598 35,000  Level Gander Center
11:32PM 45.7000 -51.7167 83° East 520 598 35,000  Level Gander Center
11:33PM 45.7500 -51.5167 70° East 520 598 35,000  Level Gander Center
11:34PM 45.7833 -51.3167 76° East 530 610 35,000  Level Gander Center
11:35PM 45.8167 -51.0833 78° East 520 598 35,000  Level Gander Center
11:36PM 45.8500 -50.9000 75° East 530 610 35,000  Level Gander Center
11:37PM 45.8833 -50.7000 76° East 520 598 35,000  Level Gander Center
11:38PM 45.9000 -50.5000 83° East 530 610 35,000  Level Gander Center
11:39PM 45.9333 -50.2667 78° East 520 598 35,000  Level Gander Center
11:40PM 45.9500 -50.1000 82° East 510 587 35,000  Level Gander Center
11:41PM 46.0000 -49.9000 70° East 520 598 35,000  Level Gander Center
11:42PM 46.0500 -49.6833 72° East 500 575 35,000  Level Gander Center
11:43PM 46.1000 -49.5167 67° East 500 575 35,000  Level Gander Center
11:44PM 46.1500 -49.3333 68° East 500 575 35,000  Level Gander Center
11:45PM 46.1833 -49.1333 76° East 510 587 35,000  Level Gander Center
11:46PM 46.2333 -48.9500 68° East 500 575 35,000  Level Gander Center
11:47PM 46.2833 -48.7667 68° East 510 587 35,000  Level Gander Center
11:48PM 46.3333 -48.5500 71° East 510 587 35,000  Level Gander Center
11:49PM 46.3667 -48.3500 76° East 530 610 35,000  Level Gander Center
11:50PM 46.4167 -48.1667 68° East 520 598 35,000  Level Gander Center
11:51PM 46.4500 -47.9667 76° East 530 610 35,000  Level Gander Center
11:52PM 46.5167 -47.7500 66° East 540 621 35,000  Level Gander Center
11:53PM 46.5500 -47.5500 76° East 500 575 35,000  Level Gander Center
11:54PM 46.6000 -47.3667 68° East 530 610 35,000  Level Gander Center
11:55PM 46.6500 -47.1500 71° East 550 633 35,000  Level Gander Center
11:57PM 46.7500 -46.7000 72° East 540 621 35,000  Level Gander Center
11:59PM 46.8344 -46.3142 72° East  Level FlightAware Approximate
12:06AM 47.1313 -44.8950 72° East  Level FlightAware Approximate
12:07AM 47.1723 -44.6910 73° East  Level FlightAware Approximate
12:08AM 47.2130 -44.4867 74° East  Level FlightAware Approximate
12:09AM 47.2532 -44.2821 74° East  Level FlightAware Approximate
12:10AM 47.2931 -44.0771 74° East  Level FlightAware Approximate
12:11AM 47.3326 -43.8718 74° East  Level FlightAware Approximate
12:12AM 47.3718 -43.6663 74° East  Level FlightAware Approximate
12:13AM 47.4106 -43.4604 74° East  Level FlightAware Approximate
12:14AM 47.4490 -43.2542 75° East  Level FlightAware Approximate
12:15AM 47.4871 -43.0478 75° East  Level FlightAware Approximate
12:16AM 47.5248 -42.8410 75° East  Level FlightAware Approximate
12:17AM 47.5621 -42.6339 75° East  Level FlightAware Approximate
12:18AM 47.5990 -42.4266 75° East  Level FlightAware Approximate
12:19AM 47.6356 -42.2189 75° East  Level FlightAware Approximate
12:20AM 47.6718 -42.0110 75° East  Level FlightAware Approximate
12:21AM 47.7076 -41.8028 76° East  Level FlightAware Approximate
12:22AM 47.7430 -41.5943 76° East  Level FlightAware Approximate
12:23AM 47.7781 -41.3855 76° East  Level FlightAware Approximate
12:24AM 47.8128 -41.1764 76° East  Level FlightAware Approximate
12:25AM 47.8471 -40.9670 76° East  Level FlightAware Approximate
12:26AM 47.8810 -40.7574 76° East  Level FlightAware Approximate
12:27AM 47.9145 -40.5475 77° East  Level FlightAware Approximate
12:28AM 47.9477 -40.3373 77° East  Level FlightAware Approximate
12:29AM 47.9804 -40.1269 77° East  Level FlightAware Approximate
12:30AM 48.0193 -39.9191 70° East  Level FlightAware Approximate
12:31AM 48.0677 -39.7152 70° East  Level FlightAware Approximate
12:32AM 48.1158 -39.5109 71° East  Level FlightAware Approximate
12:32AM 48.0000 -40.0000 69° East 548 631 35,000  Level ETMS Enhanced Traffic Management System
12:33AM 48.1635 -39.3063 71° East  Level FlightAware Approximate
12:34AM 48.2108 -39.1012 71° East  Level FlightAware Approximate
12:35AM 48.2578 -38.8958 71° East  Level FlightAware Approximate
12:36AM 48.3061 -38.6908 70° East  Level FlightAware Approximate
12:37AM 48.3560 -38.4866 70° East  Level FlightAware Approximate
12:38AM 48.5677 -37.6316 71° East 548 631 35,000  Level FlightAware Transoceanic
12:39AM 48.6169 -37.4137 71° East 548 631 35,000  Level FlightAware Transoceanic
12:40AM 48.6656 -37.1954 71° East 548 631 35,000  Level FlightAware Transoceanic
12:41AM 48.7140 -36.9767 72° East 548 631 35,000  Level FlightAware Transoceanic
12:42AM 48.7619 -36.7575 72° East 548 631 35,000  Level FlightAware Transoceanic
12:43AM 48.8094 -36.5379 72° East 548 631 35,000  Level FlightAware Transoceanic
12:44AM 48.8565 -36.3179 72° East 548 631 35,000  Level FlightAware Transoceanic
12:45AM 48.9032 -36.0975 72° East 548 631 35,000  Level FlightAware Transoceanic
12:46AM 48.9495 -35.8767 72° East 548 631 35,000  Level FlightAware Transoceanic
12:47AM 48.9953 -35.6555 73° East 548 631 35,000  Level FlightAware Transoceanic
12:48AM 49.0408 -35.4338 73° East 548 631 35,000  Level FlightAware Transoceanic
12:49AM 49.0858 -35.2118 73° East 548 631 35,000  Level FlightAware Transoceanic
12:50AM 49.1303 -34.9894 73° East 548 631 35,000  Level FlightAware Transoceanic
12:51AM 49.1744 -34.7666 73° East 548 631 35,000  Level FlightAware Transoceanic
12:52AM 49.2182 -34.5433 73° East 548 631 35,000  Level FlightAware Transoceanic
12:53AM 49.2614 -34.3197 74° East 548 631 35,000  Level FlightAware Transoceanic
12:54AM 49.3043 -34.0957 74° East 548 631 35,000  Level FlightAware Transoceanic
12:55AM 49.3467 -33.8713 74° East 548 631 35,000  Level FlightAware Transoceanic
12:56AM 49.3887 -33.6465 74° East 548 631 35,000  Level FlightAware Transoceanic
12:57AM 49.4302 -33.4214 74° East 548 631 35,000  Level FlightAware Transoceanic
12:58AM 49.4713 -33.1958 74° East 548 631 35,000  Level FlightAware Transoceanic
12:59AM 49.5120 -32.9699 75° East 548 631 35,000  Level FlightAware Transoceanic
01:00AM 49.5522 -32.7436 75° East 548 631 35,000  Level FlightAware Transoceanic
01:01AM 49.5920 -32.5169 75° East 548 631 35,000  Level FlightAware Transoceanic
01:02AM 49.6313 -32.2899 75° East 548 631 35,000  Level FlightAware Transoceanic
01:03AM 49.6702 -32.0625 75° East 548 631 35,000  Level FlightAware Transoceanic
01:04AM 49.7086 -31.8347 75° East 548 631 35,000  Level FlightAware Transoceanic
01:05AM 49.7466 -31.6066 76° East 548 631 35,000  Level FlightAware Transoceanic
01:06AM 49.7842 -31.3781 76° East 548 631 35,000  Level FlightAware Transoceanic
01:07AM 49.8213 -31.1493 76° East 548 631 35,000  Level FlightAware Transoceanic
01:08AM 49.8579 -30.9201 76° East 548 631 35,000  Level FlightAware Transoceanic
01:09AM 49.8941 -30.6906 76° East 548 631 35,000  Level FlightAware Transoceanic
01:10AM 49.9299 -30.4607 77° East 548 631 35,000  Level FlightAware Transoceanic
01:11AM 49.9652 -30.2305 77° East 548 631 35,000  Level FlightAware Transoceanic
01:12AM 49.9983 -30.0115 77° East  Level FlightAware Approximate
01:13AM 50.0310 -29.7922 77° East  Level FlightAware Approximate
01:14AM 50.0074 -29.7989 87° East  Level FlightAware Approximate
01:15AM 50.0152 -29.5741 87° East  Level FlightAware Approximate
01:15AM 50.0000 -30.0000 86° East 550 633 35,000  Level ETMS Enhanced Traffic Management System
01:16AM 50.0225 -29.3493 87° East  Level FlightAware Approximate
01:17AM 50.0293 -29.1293 87° East  Level FlightAware Approximate
01:18AM 50.0357 -28.9092 87° East  Level FlightAware Approximate
01:19AM 50.0417 -28.6891 88° East  Level FlightAware Approximate
01:20AM 50.0472 -28.4690 88° East  Level FlightAware Approximate
01:21AM 50.0724 -27.8600 88° East 550 633 35,000  Level FlightAware Transoceanic
01:22AM 50.0780 -27.6219 88° East 550 633 35,000  Level FlightAware Transoceanic
01:23AM 50.0831 -27.3837 88° East 550 633 35,000  Level FlightAware Transoceanic
01:24AM 50.0877 -27.1455 88° East 550 633 35,000  Level FlightAware Transoceanic
01:25AM 50.0919 -26.9072 89° East 550 633 35,000  Level FlightAware Transoceanic
01:26AM 50.0956 -26.6689 89° East 550 633 35,000  Level FlightAware Transoceanic
01:27AM 50.0987 -26.4305 89° East 550 633 35,000  Level FlightAware Transoceanic
01:28AM 50.1014 -26.1922 89° East 550 633 35,000  Level FlightAware Transoceanic
01:29AM 50.1036 -25.9538 89° East 550 633 35,000  Level FlightAware Transoceanic
01:30AM 50.1053 -25.7153 89° East 550 633 35,000  Level FlightAware Transoceanic
01:31AM 50.1065 -25.4769 90° East 550 633 35,000  Level FlightAware Transoceanic
01:32AM 50.1073 -25.2384 90° East 550 633 35,000  Level FlightAware Transoceanic
01:33AM 50.1075 -25.0000 90° East 550 633 35,000  Level FlightAware Transoceanic
01:34AM 50.1073 -24.7616 90° East 550 633 35,000  Level FlightAware Transoceanic
01:35AM 50.1065 -24.5231 90° East 550 633 35,000  Level FlightAware Transoceanic
01:36AM 50.1053 -24.2847 91° East 550 633 35,000  Level FlightAware Transoceanic
01:37AM 50.1036 -24.0462 91° East 550 633 35,000  Level FlightAware Transoceanic
01:38AM 50.1014 -23.8078 91° East 550 633 35,000  Level FlightAware Transoceanic
01:39AM 50.0987 -23.5695 91° East 550 633 35,000  Level FlightAware Transoceanic
01:40AM 50.0956 -23.3311 91° East 550 633 35,000  Level FlightAware Transoceanic
01:41AM 50.0919 -23.0928 91° East 550 633 35,000  Level FlightAware Transoceanic
01:42AM 50.0877 -22.8545 92° East 550 633 35,000  Level FlightAware Transoceanic
01:43AM 50.0831 -22.6163 92° East 550 633 35,000  Level FlightAware Transoceanic
01:44AM 50.0780 -22.3781 92° East 550 633 35,000  Level FlightAware Transoceanic
01:45AM 50.0724 -22.1400 92° East 550 633 35,000  Level FlightAware Transoceanic
01:46AM 50.0663 -21.9019 92° East 550 633 35,000  Level FlightAware Transoceanic
01:47AM 50.0597 -21.6639 93° East 550 633 35,000  Level FlightAware Transoceanic
01:48AM 50.0526 -21.4260 93° East 550 633 35,000  Level FlightAware Transoceanic
01:49AM 50.0451 -21.1881 93° East 550 633 35,000  Level FlightAware Transoceanic
01:50AM 50.0370 -20.9503 93° East 550 633 35,000  Level FlightAware Transoceanic
01:51AM 50.0285 -20.7126 93° East 550 633 35,000  Level FlightAware Transoceanic
01:52AM 50.0195 -20.4750 93° East 550 633 35,000  Level FlightAware Transoceanic
01:53AM 50.0100 -20.2374 94° East 550 633 35,000  Level FlightAware Transoceanic
01:54AM 50.0008 -20.0177 94° East  Level FlightAware Approximate
01:55AM 49.9912 -19.7981 94° East  Level FlightAware Approximate
01:56AM 49.9942 -19.8157 93° East  Level FlightAware Approximate
01:57AM 49.9870 -19.5959 93° East  Level FlightAware Approximate
01:58AM 49.9793 -19.3762 93° East  Level FlightAware Approximate
01:59AM 49.9712 -19.1565 93° East  Level FlightAware Approximate
02:00AM 49.9627 -18.9370 93° East  Level FlightAware Approximate
02:01AM 49.9538 -18.7175 94° East  Level FlightAware Approximate
02:02AM 49.9445 -18.4981 94° East  Level FlightAware Approximate
02:03AM 49.9347 -18.2787 94° East  Level FlightAware Approximate
02:04AM 49.9245 -18.0595 94° East  Level FlightAware Approximate
02:05AM 49.9140 -17.8403 94° East  Level FlightAware Approximate
02:06AM 49.9030 -17.6213 94° East  Level FlightAware Approximate
02:07AM 49.8916 -17.4024 95° East  Level FlightAware Approximate
02:08AM 49.8798 -17.1835 95° East  Level FlightAware Approximate
02:09AM 49.8676 -16.9648 95° East  Level FlightAware Approximate
02:10AM 49.8549 -16.7462 95° East  Level FlightAware Approximate
02:11AM 49.8419 -16.5277 95° East  Level FlightAware Approximate
02:12AM 49.8284 -16.3093 95° East  Level FlightAware Approximate
02:13AM 49.8146 -16.0910 96° East  Level FlightAware Approximate
02:14AM 49.8003 -15.8729 96° East  Level FlightAware Approximate
02:15AM 49.7856 -15.6549 96° East  Level FlightAware Approximate
02:16AM 49.7705 -15.4371 96° East  Level FlightAware Approximate
02:17AM 49.7550 -15.2193 96° East  Level FlightAware Approximate
02:18AM 49.7391 -15.0017 96° East  Level FlightAware Approximate
02:19AM 49.7228 -14.7843 97° East  Level FlightAware Approximate
02:20AM 49.7061 -14.5670 97° East  Level FlightAware Approximate
02:21AM 49.6890 -14.3499 97° East  Level FlightAware Approximate
02:22AM 49.6714 -14.1329 97° East  Level FlightAware Approximate
02:23AM 49.6535 -13.9160 97° East  Level FlightAware Approximate
02:24AM 49.6352 -13.6994 97° East  Level FlightAware Approximate
02:25AM 49.6164 -13.4829 98° East  Level FlightAware Approximate
02:26AM 49.5973 -13.2666 98° East  Level FlightAware Approximate
02:27AM 49.5777 -13.0504 98° East  Level FlightAware Approximate
02:28AM 49.5577 -12.8344 98° East  Level FlightAware Approximate
02:29AM 49.5374 -12.6186 98° East  Level FlightAware Approximate
02:30AM 49.5166 -12.4030 98° East  Level FlightAware Approximate
02:31AM 49.4955 -12.1875 99° East  Level FlightAware Approximate
02:32AM 49.4739 -11.9723 99° East  Level FlightAware Approximate
02:33AM 49.4519 -11.7572 99° East  Level FlightAware Approximate
02:34AM 49.4296 -11.5423 99° East  Level FlightAware Approximate
02:35AM 49.4068 -11.3277 99° East  Level FlightAware Approximate
02:36AM 49.3837 -11.1132 99° East  Level FlightAware Approximate
02:37AM 49.3601 -10.8989 99° East  Level FlightAware Approximate
02:38AM 49.3362 -10.6849 100° East  Level FlightAware Approximate
02:39AM 49.3119 -10.4710 100° East  Level FlightAware Approximate
02:40AM 49.2871 -10.2574 100° East  Level FlightAware Approximate
02:40AM 49.3930 -9.9140 100° East 510 587 35,000  Level FlightAware
02:41AM 49.2620 -10.0440 100° East  Level FlightAware Approximate
02:41AM 49.3690 -9.7670 104° East 511 588 35,000  Level FlightAware
02:41AM 49.3500 -9.6580 105° East 512 589 35,000  Level FlightAware
02:42AM 49.3240 -9.4940 104° East 512 589 35,000  Level FlightAware
02:43AM 49.3060 -9.3860 104° East 512 589 35,000  Level FlightAware
02:43AM 49.2780 -9.2280 105° East 514 592 35,000  Level FlightAware
02:44AM 49.2560 -9.1020 105° East 514 592 35,000  Level FlightAware
02:44AM 49.2340 -8.9740 105° East 515 593 35,000  Level FlightAware
02:45AM 49.2120 -8.8440 104° East 517 595 35,000  Level FlightAware
02:45AM 49.1960 -8.7540 105° East 517 595 35,000  Level FlightAware
02:46AM 49.1700 -8.6040 105° East 519 597 35,000  Level FlightAware
02:47AM 49.1643 -8.5699 105° East 500 575 35,000  Level FlightAware UK
02:47AM 49.1480 -8.4810 105° East 519 597 35,000  Level FlightAware
02:47AM 49.1250 -8.3490 105° East 520 598 35,000  Level FlightAware
02:48AM 49.1060 -8.2370 104° East 521 600 35,000  Level FlightAware
02:48AM 49.0840 -8.1160 105° East 521 600 35,000  Level FlightAware
02:49AM 49.0600 -7.9820 105° East 521 600 35,000  Level FlightAware
02:50AM 49.0390 -7.8690 106° East 521 600 35,000  Level FlightAware
02:50AM 49.0266 -7.8331 106° East 502 578 35,000  Level FlightAware UK
02:50AM 49.0080 -7.7490 106° East 521 600 35,000  Level FlightAware
02:51AM 48.9680 -7.6210 115° Southeast 521 600 35,000  Level FlightAware
02:51AM 48.9350 -7.5150 115° Southeast 522 601 35,000  Level FlightAware
02:52AM 48.8980 -7.3960 115° Southeast 520 598 35,000  Level FlightAware
02:52AM 48.8630 -7.2850 116° Southeast 521 600 35,000  Level FlightAware
02:53AM 48.8270 -7.1710 116° Southeast 521 600 35,000  Level FlightAware
02:54AM 48.8095 -7.1442 116° Southeast 502 578 35,000  Level FlightAware UK
02:54AM 48.7870 -7.0470 116° Southeast 521 600 35,000  Level FlightAware
02:54AM 48.7721 -7.0275 116° Southeast 500 575 35,000  Level FlightAware UK
02:54AM 48.7510 -6.9340 116° Southeast 521 600 35,000  Level FlightAware
02:55AM 48.7401 -6.9290 116° Southeast 500 575 35,000  Level FlightAware UK
02:55AM 48.7160 -6.8270 116° Southeast 520 598 35,000  Level FlightAware
02:55AM 48.6780 -6.7070 116° Southeast 520 598 35,000  Level FlightAware
02:56AM 48.6460 -6.6090 116° Southeast 530 610 35,000  Level FlightAware
02:57AM 48.6050 -6.4840 116° Southeast 521 600 35,000  Level FlightAware
02:57AM 48.5680 -6.3680 116° Southeast 522 601 35,000  Level FlightAware
02:58AM 48.5290 -6.2490 116° Southeast 522 601 35,000  Level FlightAware
02:58AM 48.5507 -6.3455 116° Southeast 500 575 35,000  Level FlightAware UK
02:58AM 48.5194 -6.2488 116° Southeast 500 575 35,000  Level FlightAware UK
02:58AM 48.4890 -6.1280 116° Southeast 521 600 35,000  Level FlightAware
02:59AM 48.4550 -6.0230 116° Southeast 522 601 35,000  Level FlightAware
03:00AM 48.4150 -5.9030 117° Southeast 522 601 35,000  Level FlightAware
03:00AM 48.3770 -5.7890 117° Southeast 522 601 35,000  Level FlightAware
03:01AM 48.3440 -5.6870 116° Southeast 522 601 35,000  Level FlightAware
03:01AM 48.3020 -5.5640 116° Southeast 522 601 35,000  Level FlightAware
03:01AM 48.3261 -5.6696 116° Southeast 500 575 35,000  Level FlightAware UK
03:02AM 48.2936 -5.5736 116° Southeast 500 575 35,000  Level FlightAware UK
03:02AM 48.2650 -5.4520 116° Southeast 522 601 35,000  Level FlightAware
03:02AM 48.2250 -5.3340 117° Southeast 523 602 35,000  Level FlightAware
03:03AM 48.1890 -5.2280 117° Southeast 523 602 35,000  Level FlightAware
03:04AM 48.1540 -5.1230 117° Southeast 523 602 35,000  Level FlightAware
03:04AM 48.1120 -5.0000 117° Southeast 523 602 35,000  Level FlightAware
03:05AM 48.0720 -4.8820 117° Southeast 522 601 35,000  Level FlightAware
03:05AM 48.0390 -4.7850 117° Southeast 523 602 35,000  Level FlightAware
03:06AM 47.9980 -4.6630 117° Southeast 523 602 35,000  Level FlightAware
03:07AM 47.9590 -4.5500 117° Southeast 523 602 35,000  Level FlightAware
03:07AM 47.9210 -4.4400 117° Southeast 522 601 35,000  Level FlightAware
03:08AM 47.8840 -4.3330 117° Southeast 522 601 35,000  Level FlightAware
03:08AM 47.8450 -4.2220 118° Southeast 522 601 35,000  Level FlightAware
03:09AM 47.8060 -4.1090 117° Southeast 523 602 35,000  Level FlightAware
03:09AM 47.7650 -3.9950 118° Southeast 523 602 35,000  Level FlightAware
03:10AM 47.7240 -3.8790 118° Southeast 523 602 35,000  Level FlightAware
03:11AM 47.6810 -3.7570 118° Southeast 523 602 35,000  Level FlightAware
03:11AM 47.6250 -3.6010 118° Southeast 523 602 35,000  Level FlightAware
03:12AM 47.5870 -3.4940 118° Southeast 522 601 35,000  Level FlightAware
03:13AM 47.5490 -3.3850 117° Southeast 521 600 35,000  Level FlightAware
03:13AM 47.5130 -3.2750 116° Southeast 519 597 35,000  Level FlightAware
03:14AM 47.4760 -3.1540 114° Southeast 518 596 35,000  Level FlightAware
03:14AM 47.4430 -3.0420 114° Southeast 517 595 35,000  Level FlightAware
03:15AM 47.4130 -2.9400 113° Southeast 516 594 35,000  Level FlightAware
03:16AM 47.3770 -2.8220 114° Southeast 516 594 35,000  Level FlightAware
03:16AM 47.3430 -2.7070 114° Southeast 516 594 35,000  Level FlightAware
03:17AM 47.3140 -2.6120 114° Southeast 515 593 35,000  Level FlightAware
03:17AM 47.2770 -2.4910 114° Southeast 514 592 35,000  Level FlightAware
03:18AM 47.2400 -2.3690 114° Southeast 514 592 35,000  Level FlightAware
03:18AM 47.2040 -2.2530 115° Southeast 514 592 35,000  Level FlightAware
03:19AM 47.1740 -2.1540 114° Southeast 513 590 35,000  Level FlightAware
03:20AM 47.1390 -2.0410 114° Southeast 514 592 35,000  Level FlightAware
03:20AM 47.1020 -1.9230 115° Southeast 514 592 35,000  Level FlightAware
03:21AM 47.0710 -1.8240 115° Southeast 514 592 35,000  Level FlightAware
03:21AM 47.0310 -1.6960 115° Southeast 514 592 35,000  Level FlightAware
03:22AM 46.9940 -1.5820 115° Southeast 514 592 35,000  Level FlightAware
03:23AM 46.9620 -1.4810 115° Southeast 513 590 35,000  Level FlightAware
03:23AM 46.9260 -1.3700 115° Southeast 513 590 35,000  Level FlightAware
03:24AM 46.8970 -1.2800 115° Southeast 512 589 35,000  Level FlightAware
03:24AM 46.8610 -1.1700 116° Southeast 512 589 35,000  Level FlightAware
03:25AM 46.8250 -1.0580 115° Southeast 512 589 35,000  Level FlightAware
03:25AM 46.7920 -0.9570 115° Southeast 511 588 35,000  Level FlightAware
03:26AM 46.7550 -0.8440 116° Southeast 511 588 35,000  Level FlightAware
03:27AM 46.7200 -0.7340 115° Southeast 507 583 35,000  Level FlightAware
03:27AM 46.6840 -0.6100 113° Southeast 508 585 35,000  Level FlightAware
03:28AM 46.6600 -0.5270 113° Southeast 507 583 35,000  Level FlightAware
03:28AM 46.6200 -0.3910 113° Southeast 507 583 35,000  Level FlightAware
03:29AM 46.5880 -0.2860 114° Southeast 506 582 35,000  Level FlightAware
03:30AM 46.5550 -0.1760 114° Southeast 507 583 35,000  Level FlightAware
03:30AM 46.5230 -0.0680 113° Southeast 506 582 35,000  Level FlightAware
03:31AM 46.4860 0.0490 115° Southeast 510 587 35,000  Level FlightAware
03:31AM 46.4540 0.1230 122° Southeast 513 590 35,000  Level FlightAware
03:32AM 46.4040 0.2340 123° Southeast 512 589 35,000  Level FlightAware
03:32AM 46.3550 0.3420 123° Southeast 512 589 35,000  Level FlightAware
03:33AM 46.3090 0.4420 124° Southeast 511 588 35,000  Level FlightAware
03:34AM 46.2600 0.5500 123° Southeast 510 587 35,000  Level FlightAware
03:34AM 46.2160 0.6490 123° Southeast 508 585 35,000  Level FlightAware
03:35AM 46.1800 0.7420 119° Southeast 504 580 35,000  Level FlightAware
03:35AM 46.1390 0.8500 119° Southeast 504 580 35,000  Level FlightAware
03:36AM 46.1020 0.9460 119° Southeast 502 578 35,000  Level FlightAware
03:37AM 46.0610 1.0530 119° Southeast 501 577 35,000  Level FlightAware
03:37AM 46.0260 1.1640 114° Southeast 493 567 35,000  Level FlightAware
03:38AM 45.9990 1.2640 111° Southeast 490 564 35,000  Level FlightAware
03:38AM 45.9690 1.3760 111° Southeast 489 563 35,000  Level FlightAware
03:39AM 45.9430 1.4760 110° East 489 563 35,000  Level FlightAware
03:39AM 45.9150 1.5850 110° East 488 562 35,000  Level FlightAware
03:40AM 45.8900 1.6810 110° East 489 563 35,000  Level FlightAware
03:41AM 45.8610 1.7960 110° East 490 564 35,000  Level FlightAware
03:41AM 45.8320 1.9090 110° East 491 565 35,000  Level FlightAware
03:42AM 45.7950 2.0480 111° Southeast 491 565 35,000  Level FlightAware
03:42AM 45.7690 2.1470 111° Southeast 491 565 35,000  Level FlightAware
03:43AM 45.7400 2.2550 111° Southeast 490 564 35,000  Level FlightAware
03:44AM 45.7110 2.3580 112° Southeast 493 567 35,000  Level FlightAware
03:44AM 45.6760 2.4660 115° Southeast 495 570 35,000  Level FlightAware
03:45AM 45.6420 2.5640 116° Southeast 496 571 35,000  Level FlightAware
03:45AM 45.6060 2.6660 117° Southeast 497 572 35,000  Level FlightAware
03:46AM 45.5670 2.7730 117° Southeast 497 572 35,000  Level FlightAware
03:47AM 45.5280 2.8780 118° Southeast 497 572 35,000  Level FlightAware
03:47AM 45.4970 2.9640 117° Southeast 497 572 35,000  Level FlightAware
03:48AM 45.4460 3.1020 118° Southeast 496 571 35,000  Level FlightAware
03:49AM 45.4070 3.2070 118° Southeast 494 568 35,000  Level FlightAware
03:49AM 45.3750 3.2930 118° Southeast 494 568 35,000  Level FlightAware
03:50AM 45.3360 3.3980 118° Southeast 493 567 35,000  Level FlightAware
03:50AM 45.2970 3.5030 118° Southeast 492 566 35,000  Level FlightAware
03:51AM 45.2580 3.6080 118° Southeast 493 567 35,000  Level FlightAware
03:51AM 45.2250 3.6960 118° Southeast 492 566 35,000  Level FlightAware
03:52AM 45.1850 3.8020 118° Southeast 491 565 35,000  Level FlightAware
03:53AM 45.1470 3.9040 118° Southeast 490 564 35,000  Level FlightAware
03:53AM 45.1130 3.9930 118° Southeast 489 563 35,000  Level FlightAware
03:54AM 45.0740 4.0960 118° Southeast 489 563 35,000  Level FlightAware
03:54AM 45.0360 4.1970 118° Southeast 488 562 35,000  Level FlightAware
03:55AM 44.9970 4.2980 119° Southeast 487 560 35,000  Level FlightAware
03:55AM 44.9590 4.3870 121° Southeast 495 570 35,000  Level FlightAware
03:56AM 44.9140 4.4810 124° Southeast 495 570 35,000  Level FlightAware
03:57AM 44.8680 4.5800 123° Southeast 495 570 35,000  Level FlightAware
03:57AM 44.8240 4.6760 123° Southeast 495 570 35,000  Level FlightAware
03:58AM 44.7840 4.7640 123° Southeast 495 570 35,000  Level FlightAware
03:58AM 44.7390 4.8620 123° Southeast 495 570 35,000  Level FlightAware
03:59AM 44.6960 4.9580 122° Southeast 494 568 35,000  Level FlightAware
04:00AM 44.6520 5.0530 123° Southeast 493 567 35,000  Level FlightAware
04:00AM 44.6080 5.1440 124° Southeast 493 567 35,000  Level FlightAware
04:01AM 44.5640 5.2350 124° Southeast 495 570 35,000  Level FlightAware
04:01AM 44.5140 5.3380 124° Southeast 495 570 35,000  Level FlightAware
04:02AM 44.4740 5.4210 124° Southeast 496 571 35,000  Level FlightAware
04:02AM 44.4280 5.5170 124° Southeast 495 570 35,000  Level FlightAware
04:03AM 44.3820 5.6130 124° Southeast 494 568 35,000  Level FlightAware
04:04AM 44.3350 5.7090 124° Southeast 494 568 35,000  Level FlightAware
04:04AM 44.2950 5.7910 124° Southeast 494 568 35,000  Level FlightAware
04:05AM 44.2470 5.8880 125° Southeast 494 568 35,000  Level FlightAware
04:05AM 44.2050 5.9730 125° Southeast 494 568 35,000  Level FlightAware
04:06AM 44.1570 6.0700 125° Southeast 495 570 35,000  Level FlightAware
04:07AM 44.1100 6.1660 124° Southeast 497 572 35,000  Level FlightAware
04:07AM 44.0610 6.2640 125° Southeast 499 574 35,000 360 Level FlightAware
04:08AM 44.0090 6.3700 124° Southeast 502 578 35,500 1,020 Climbing FlightAware
04:08AM 43.9610 6.4660 125° Southeast 501 577 36,300 1,020 Climbing FlightAware
04:09AM 43.9200 6.5490 124° Southeast 504 580 36,700 600 Climbing FlightAware
04:10AM 43.8720 6.6450 125° Southeast 505 581 37,000 240 Climbing FlightAware
04:10AM 43.8270 6.7340 125° Southeast 504 580 37,000  Level FlightAware
04:11AM 43.7910 6.8060 125° Southeast 503 579 37,000  Level FlightAware
04:11AM 43.7220 6.9420 125° Southeast 502 578 37,000  Level FlightAware
04:12AM 43.6800 7.0210 126° Southeast 504 580 37,000  Level FlightAware
04:13AM 43.6130 7.1320 130° Southeast 506 582 37,000  Level FlightAware
04:13AM 43.5640 7.2270 125° Southeast 502 578 37,000  Level FlightAware
04:14AM 43.5200 7.3270 121° Southeast 504 580 37,000  Level FlightAware
04:14AM 43.4830 7.4130 121° Southeast 507 583 37,000  Level FlightAware
04:15AM 43.4370 7.5180 121° Southeast 511 588 37,000  Level FlightAware
04:16AM 43.3970 7.6090 121° Southeast 513 590 37,000  Level FlightAware
04:16AM 43.3510 7.7120 122° Southeast 515 593 37,000  Level FlightAware
04:17AM 43.3080 7.8090 121° Southeast 516 594 37,000  Level FlightAware
04:17AM 43.2630 7.9110 121° Southeast 517 595 37,000  Level FlightAware
04:18AM 43.2220 8.0010 122° Southeast 519 597 37,000  Level FlightAware
04:19AM 43.1780 8.1010 121° Southeast 521 600 37,000  Level FlightAware
04:19AM 43.1380 8.1910 121° Southeast 522 601 37,000  Level FlightAware
04:20AM 43.0880 8.3030 121° Southeast 525 604 37,000  Level FlightAware
04:20AM 43.0440 8.4020 121° Southeast 526 605 37,000  Level FlightAware
04:21AM 42.9980 8.5040 122° Southeast 526 605 37,000  Level FlightAware
04:22AM 42.9550 8.6010 121° Southeast 526 605 37,000  Level FlightAware
04:22AM 42.9040 8.7140 122° Southeast 525 604 37,000  Level FlightAware
04:23AM 42.8700 8.7900 121° Southeast 524 603 37,000  Level FlightAware
04:23AM 42.8180 8.9040 122° Southeast 522 601 37,000  Level FlightAware
04:24AM 42.7830 8.9820 121° Southeast 521 600 37,000  Level FlightAware
04:24AM 42.7290 9.1010 122° Southeast 518 596 37,000  Level FlightAware
04:25AM 42.6770 9.2140 122° Southeast 517 595 37,000  Level FlightAware
04:26AM 42.6270 9.3230 122° Southeast 516 594 37,000  Level FlightAware
04:26AM 42.5800 9.4260 122° Southeast 516 594 37,000  Level FlightAware
04:27AM 42.5390 9.5160 122° Southeast 515 593 37,000  Level FlightAware
04:28AM 42.5050 9.6100 116° Southeast 516 594 37,000  Level FlightAware
04:28AM 42.4740 9.7250 110° East 517 595 37,000  Level FlightAware
04:29AM 42.4390 9.8350 113° Southeast 518 596 37,000  Level FlightAware
04:29AM 42.3990 9.9260 121° Southeast 518 596 37,000  Level FlightAware
04:30AM 42.3550 10.0200 122° Southeast 518 596 37,000  Level FlightAware
04:31AM 42.3060 10.1230 123° Southeast 518 596 37,000  Level FlightAware
04:31AM 42.2610 10.2190 122° Southeast 519 597 37,000  Level FlightAware
04:32AM 42.2190 10.3080 122° Southeast 519 597 37,000  Level FlightAware
04:32AM 42.1780 10.3950 122° Southeast 519 597 37,000  Level FlightAware
04:33AM 42.1280 10.5000 123° Southeast 519 597 37,000  Level FlightAware
04:33AM 42.0800 10.6010 123° Southeast 519 597 37,000  Level FlightAware
04:34AM 42.0380 10.6890 123° Southeast 519 597 37,000  Level FlightAware
04:35AM 41.9910 10.7880 123° Southeast 519 597 37,000  Level FlightAware
04:35AM 41.9450 10.8850 122° Southeast 520 598 37,000  Level FlightAware
04:36AM 41.9060 10.9660 123° Southeast 520 598 37,000  Level FlightAware
04:36AM 41.8530 11.0750 123° Southeast 520 598 37,000  Level FlightAware
04:37AM 41.8060 11.1710 123° Southeast 520 598 37,000  Level FlightAware
04:37AM 41.7650 11.2560 123° Southeast 520 598 37,000  Level FlightAware
04:38AM 41.7160 11.3560 123° Southeast 520 598 37,000  Level FlightAware
04:39AM 41.6690 11.4500 124° Southeast 520 598 37,000  Level FlightAware
04:39AM 41.6270 11.5370 123° Southeast 520 598 37,000  Level FlightAware
04:40AM 41.5790 11.6340 123° Southeast 522 601 37,000  Level FlightAware
04:40AM 41.5310 11.7320 123° Southeast 522 601 37,000  Level FlightAware
04:41AM 41.4840 11.8260 124° Southeast 523 602 37,000  Level FlightAware
04:42AM 41.4410 11.9140 123° Southeast 523 602 37,000  Level FlightAware
04:42AM 41.3900 12.0150 124° Southeast 524 603 37,000  Level FlightAware
04:43AM 41.3490 12.0980 123° Southeast 525 604 37,000  Level FlightAware
04:43AM 41.2980 12.2000 124° Southeast 525 604 37,000  Level FlightAware
04:44AM 41.2500 12.2970 123° Southeast 525 604 37,000  Level FlightAware
04:45AM 41.2030 12.3960 122° Southeast 526 605 37,000  Level FlightAware
04:45AM 41.1630 12.4870 120° Southeast 525 604 37,000  Level FlightAware
04:46AM 41.1200 12.5860 120° Southeast 525 604 37,000  Level FlightAware
04:46AM 41.0820 12.6730 120° Southeast 525 604 37,000  Level FlightAware
04:47AM 41.0430 12.7630 120° Southeast 524 603 37,000  Level FlightAware
04:47AM 40.9970 12.8700 120° Southeast 524 603 37,000  Level FlightAware
04:48AM 40.9550 12.9660 120° Southeast 525 604 37,000  Level FlightAware
04:49AM 40.9080 13.0730 120° Southeast 525 604 37,000  Level FlightAware
04:49AM 40.8660 13.1680 120° Southeast 526 605 37,000  Level FlightAware
04:50AM 40.8220 13.2680 120° Southeast 527 606 37,000  Level FlightAware
04:50AM 40.7820 13.3580 120° Southeast 527 606 37,000  Level FlightAware
04:51AM 40.7350 13.4610 121° Southeast 526 605 37,000  Level FlightAware
04:52AM 40.6890 13.5630 121° Southeast 526 605 37,000  Level FlightAware
04:52AM 40.6470 13.6580 120° Southeast 526 605 37,000  Level FlightAware
04:53AM 40.6040 13.7510 121° Southeast 526 605 37,000  Level FlightAware
04:53AM 40.5590 13.8520 120° Southeast 526 605 37,000  Level FlightAware
04:54AM 40.5140 13.9500 121° Southeast 525 604 37,000  Level FlightAware
04:54AM 40.4750 14.0350 121° Southeast 525 604 37,000  Level FlightAware
04:55AM 40.4290 14.1360 121° Southeast 523 602 37,000  Level FlightAware
04:56AM 40.3840 14.2350 121° Southeast 522 601 37,000  Level FlightAware
04:56AM 40.3450 14.3180 122° Southeast 521 600 37,000  Level FlightAware
04:57AM 40.3000 14.4160 121° Southeast 521 600 37,000  Level FlightAware
04:57AM 40.2540 14.5130 122° Southeast 521 600 37,000  Level FlightAware
04:58AM 40.2090 14.6110 121° Southeast 522 601 37,000  Level FlightAware
04:58AM 40.1690 14.6950 122° Southeast 524 603 37,000  Level FlightAware
04:59AM 40.1220 14.7950 122° Southeast 526 605 37,000  Level FlightAware
05:00AM 40.0770 14.8900 122° Southeast 526 605 37,000  Level FlightAware
05:00AM 40.0300 14.9880 122° Southeast 527 606 37,000  Level FlightAware
05:01AM 39.9870 15.0800 121° Southeast 528 608 37,000  Level FlightAware
05:01AM 39.9400 15.1770 122° Southeast 527 606 37,000  Level FlightAware
05:02AM 39.8940 15.2730 122° Southeast 527 606 37,000  Level FlightAware
05:03AM 39.8530 15.3580 122° Southeast 526 605 37,000  Level FlightAware
05:03AM 39.8060 15.4560 122° Southeast 526 605 37,000  Level FlightAware
05:04AM 39.7610 15.5480 122° Southeast 525 604 37,000  Level FlightAware
05:04AM 39.7150 15.6440 122° Southeast 524 603 37,000  Level FlightAware
05:05AM 39.6730 15.7270 123° Southeast 524 603 37,000  Level FlightAware
05:05AM 39.6240 15.8310 121° Southeast 525 604 37,000  Level FlightAware
05:06AM 39.5860 15.9280 117° Southeast 526 605 37,000  Level FlightAware
05:07AM 39.5540 16.0210 114° Southeast 527 606 37,000  Level FlightAware
05:07AM 39.5180 16.1250 114° Southeast 527 606 37,000  Level FlightAware
05:08AM 39.4840 16.2260 114° Southeast 528 608 37,000  Level FlightAware
05:08AM 39.4470 16.3330 114° Southeast 527 606 37,000  Level FlightAware
05:09AM 39.4150 16.4260 114° Southeast 528 608 37,000  Level FlightAware
05:10AM 39.3790 16.5330 113° Southeast 527 606 37,000  Level FlightAware
05:10AM 39.3430 16.6360 114° Southeast 527 606 37,000  Level FlightAware
05:11AM 39.3110 16.7290 114° Southeast 528 608 37,000  Level FlightAware
05:11AM 39.2890 16.7930 114° Southeast 527 606 37,000  Level FlightAware
05:12AM 39.2390 16.9370 114° Southeast 526 605 37,000  Level FlightAware
05:12AM 39.2070 17.0300 114° Southeast 527 606 37,000  Level FlightAware
05:13AM 39.1700 17.1370 114° Southeast 526 605 37,000  Level FlightAware
05:14AM 39.1350 17.2350 115° Southeast 526 605 37,000  Level FlightAware
05:14AM 39.1010 17.3310 115° Southeast 525 604 37,000  Level FlightAware
05:15AM 39.0650 17.4340 114° Southeast 524 603 37,000  Level FlightAware
05:15AM 39.0290 17.5350 115° Southeast 524 603 37,000  Level FlightAware
05:16AM 38.9920 17.6380 115° Southeast 523 602 37,000  Level FlightAware
05:17AM 38.9600 17.7280 115° Southeast 523 602 37,000  Level FlightAware
05:17AM 38.9230 17.8290 115° Southeast 523 602 37,000  Level FlightAware
05:18AM 38.8870 17.9300 115° Southeast 523 602 37,000  Level FlightAware
05:18AM 38.8500 18.0330 115° Southeast 524 603 37,000  Level FlightAware
05:19AM 38.8150 18.1280 115° Southeast 525 604 37,000  Level FlightAware
05:20AM 38.7780 18.2310 115° Southeast 525 604 37,000  Level FlightAware
05:20AM 38.7450 18.3200 115° Southeast 526 605 37,000  Level FlightAware
05:21AM 38.7050 18.4270 116° Southeast 526 605 37,000  Level FlightAware
05:21AM 38.6740 18.5110 115° Southeast 527 606 37,000  Level FlightAware
05:22AM 38.6350 18.6180 115° Southeast 527 606 37,000  Level FlightAware
05:22AM 38.5940 18.7270 116° Southeast 529 609 37,000  Level FlightAware
05:23AM 38.5610 18.8150 116° Southeast 530 610 37,000  Level FlightAware
05:24AM 38.5260 18.9140 114° Southeast 531 611 37,000  Level FlightAware
05:24AM 38.4930 19.0190 112° Southeast 532 612 37,000  Level FlightAware
05:25AM 38.4620 19.1200 111° Southeast 533 613 37,000  Level FlightAware
05:25AM 38.4260 19.2380 111° Southeast 533 613 37,000  Level FlightAware
05:26AM 38.3950 19.3390 111° Southeast 533 613 37,000  Level FlightAware
05:27AM 38.3640 19.4430 111° Southeast 534 615 37,000  Level FlightAware
05:27AM 38.3330 19.5430 112° Southeast 534 615 37,000  Level FlightAware
05:28AM 38.3010 19.6470 111° Southeast 533 613 37,000  Level FlightAware
05:28AM 38.2700 19.7490 111° Southeast 533 613 37,000  Level FlightAware
05:29AM 38.2380 19.8520 112° Southeast 533 613 37,000  Level FlightAware
05:29AM 38.2060 19.9530 112° Southeast 533 613 37,000  Level FlightAware
05:30AM 38.1740 20.0550 112° Southeast 534 615 37,000  Level FlightAware
05:31AM 38.1410 20.1590 112° Southeast 535 616 37,000  Level FlightAware
05:31AM 38.1040 20.2770 112° Southeast 533 613 37,000  Level FlightAware
05:32AM 38.0720 20.3780 112° Southeast 533 613 37,000  Level FlightAware
05:33AM 38.0390 20.4820 112° Southeast 534 615 37,000  Level FlightAware
05:33AM 38.0030 20.5960 112° Southeast 535 616 37,000  Level FlightAware
05:34AM 37.9740 20.6870 112° Southeast 535 616 37,000  Level FlightAware
05:34AM 37.9420 20.7870 112° Southeast 535 616 37,000  Level FlightAware
05:35AM 37.9100 20.8900 111° Southeast 534 615 37,000  Level FlightAware
05:36AM 37.8730 21.0050 112° Southeast 533 613 37,000  Level FlightAware
05:36AM 37.8440 21.0940 112° Southeast 534 615 37,000  Level FlightAware
05:37AM 37.8100 21.2010 112° Southeast 537 618 37,000  Level FlightAware
05:37AM 37.7770 21.2980 113° Southeast 537 618 37,000  Level FlightAware
05:38AM 37.7400 21.4070 113° Southeast 537 618 37,000  Level FlightAware
05:38AM 37.7050 21.5120 113° Southeast 538 619 37,000  Level FlightAware
05:39AM 37.6700 21.6150 113° Southeast 538 619 37,000  Level FlightAware
05:39AM 37.6420 21.6980 113° Southeast 539 620 37,000  Level FlightAware
05:40AM 37.6030 21.8130 113° Southeast 538 619 37,000  Level FlightAware
05:41AM 37.5680 21.9160 113° Southeast 537 618 37,000  Level FlightAware
05:41AM 37.5330 22.0190 113° Southeast 537 618 37,000  Level FlightAware
05:42AM 37.5020 22.1100 113° Southeast 537 618 37,000  Level FlightAware
05:42AM 37.4680 22.2110 113° Southeast 535 616 37,000  Level FlightAware
05:43AM 37.4360 22.3060 113° Southeast 535 616 37,000  Level FlightAware
05:44AM 37.3960 22.4230 113° Southeast 536 617 37,000  Level FlightAware
05:44AM 37.3650 22.5150 113° Southeast 536 617 37,000  Level FlightAware
05:45AM 37.3310 22.6160 113° Southeast 536 617 37,000  Level FlightAware
05:45AM 37.3000 22.7080 113° Southeast 536 617 37,000  Level FlightAware
05:46AM 37.2640 22.8140 113° Southeast 535 616 37,000  Level FlightAware
05:47AM 37.2280 22.9200 113° Southeast 534 615 37,000  Level FlightAware
05:47AM 37.1960 23.0110 114° Southeast 534 615 37,000  Level FlightAware
05:48AM 37.1600 23.1160 113° Southeast 535 616 37,000  Level FlightAware
05:48AM 37.1240 23.2180 114° Southeast 536 617 37,000  Level FlightAware
05:49AM 37.0910 23.3140 113° Southeast 535 616 37,000  Level FlightAware
05:49AM 37.0550 23.4160 114° Southeast 535 616 37,000  Level FlightAware
05:50AM 37.0220 23.5110 113° Southeast 535 616 37,000  Level FlightAware
05:51AM 36.9860 23.6110 114° Southeast 536 617 37,000  Level FlightAware
05:51AM 36.9490 23.7160 114° Southeast 534 615 37,000  Level FlightAware
05:52AM 36.9140 23.8150 114° Southeast 533 613 37,000  Level FlightAware
05:52AM 36.8810 23.9050 115° Southeast 533 613 37,000  Level FlightAware
05:53AM 36.8430 24.0140 114° Southeast 532 612 37,000  Level FlightAware
05:54AM 36.8110 24.1040 114° Southeast 530 610 37,000  Level FlightAware
05:54AM 36.7770 24.2030 113° Southeast 529 609 37,000  Level FlightAware
05:55AM 36.7420 24.3000 114° Southeast 530 610 37,000  Level FlightAware
05:55AM 36.7060 24.4010 114° Southeast 531 611 37,000  Level FlightAware
05:56AM 36.6730 24.4920 114° Southeast 531 611 37,000  Level FlightAware
05:56AM 36.6360 24.5960 114° Southeast 531 611 37,000  Level FlightAware
05:57AM 36.5990 24.6970 115° Southeast 531 611 37,000  Level FlightAware
05:58AM 36.5630 24.7970 114° Southeast 532 612 37,000  Level FlightAware
05:58AM 36.5310 24.8850 114° Southeast 532 612 37,000  Level FlightAware
05:59AM 36.4940 24.9870 114° Southeast 531 611 37,000  Level FlightAware
05:59AM 36.4600 25.0800 114° Southeast 531 611 37,000  Level FlightAware
06:00AM 36.4230 25.1800 115° Southeast 530 610 37,000  Level FlightAware
06:01AM 36.3880 25.2780 114° Southeast 529 609 37,000  Level FlightAware
06:01AM 36.3570 25.3630 114° Southeast 528 608 37,000  Level FlightAware
06:02AM 36.3160 25.4730 115° Southeast 525 604 37,000  Level FlightAware
06:02AM 36.2800 25.5720 114° Southeast 525 604 37,000  Level FlightAware
06:03AM 36.2480 25.6600 114° Southeast 524 603 37,000  Level FlightAware
06:03AM 36.2120 25.7570 115° Southeast 523 602 37,000  Level FlightAware
06:04AM 36.1770 25.8510 115° Southeast 522 601 37,000  Level FlightAware
06:05AM 36.1440 25.9380 115° Southeast 521 600 37,000  Level FlightAware
06:05AM 36.1050 26.0440 114° Southeast 520 598 37,000  Level FlightAware
06:06AM 36.0720 26.1310 115° Southeast 520 598 37,000  Level FlightAware
06:06AM 36.0360 26.2280 115° Southeast 519 597 37,000  Level FlightAware
06:07AM 35.9990 26.3270 115° Southeast 518 596 37,000  Level FlightAware
06:08AM 35.9640 26.4200 115° Southeast 517 595 37,000  Level FlightAware
06:08AM 35.9310 26.5080 115° Southeast 519 597 37,000  Level FlightAware
06:09AM 35.8950 26.6040 115° Southeast 519 597 37,000  Level FlightAware
06:09AM 35.8580 26.7000 115° Southeast 519 597 37,000  Level FlightAware
06:10AM 35.8210 26.7990 115° Southeast 519 597 37,000  Level FlightAware
06:11AM 35.7840 26.8970 115° Southeast 519 597 37,000  Level FlightAware
06:11AM 35.7470 26.9920 116° Southeast 521 600 37,000  Level FlightAware
06:12AM 35.7130 27.0840 114° Southeast 521 600 37,000  Level FlightAware
06:12AM 35.6720 27.1890 116° Southeast 525 604 37,000  Level FlightAware
06:13AM 35.6360 27.2820 115° Southeast 527 606 37,000  Level FlightAware
06:14AM 35.5960 27.3870 115° Southeast 529 609 37,000  Level FlightAware
06:14AM 35.5640 27.4720 115° Southeast 531 611 37,000  Level FlightAware
06:15AM 35.5280 27.5660 115° Southeast 533 613 37,000  Level FlightAware
06:15AM 35.4890 27.6660 116° Southeast 536 617 37,000  Level FlightAware
06:16AM 35.4530 27.7570 116° Southeast 539 620 37,000  Level FlightAware
06:16AM 35.4150 27.8570 115° Southeast 541 623 37,000  Level FlightAware
06:17AM 35.3760 27.9570 116° Southeast 543 625 37,000  Level FlightAware
06:18AM 35.3410 28.0460 116° Southeast 545 627 37,000  Level FlightAware
06:18AM 35.3030 28.1440 115° Southeast 548 631 37,000  Level FlightAware
06:19AM 35.2630 28.2460 116° Southeast 551 634 37,000  Level FlightAware
06:20AM 35.2180 28.3620 115° Southeast 553 636 37,000  Level FlightAware
06:20AM 35.1770 28.4620 117° Southeast 553 636 37,000  Level FlightAware
06:21AM 35.1340 28.5690 116° Southeast 553 636 37,000  Level FlightAware
06:21AM 35.1000 28.6550 116° Southeast 554 638 37,000  Level FlightAware
06:22AM 35.0590 28.7570 116° Southeast 554 638 37,000  Level FlightAware
06:22AM 35.0200 28.8530 116° Southeast 555 639 37,000  Level FlightAware
06:23AM 34.9730 28.9710 116° Southeast 554 638 37,000  Level FlightAware
06:24AM 34.9330 29.0690 116° Southeast 555 639 37,000  Level FlightAware
06:24AM 34.8940 29.1660 116° Southeast 554 638 37,000  Level FlightAware
06:25AM 34.8500 29.2740 116° Southeast 555 639 37,000  Level FlightAware
06:25AM 34.8090 29.3760 116° Southeast 556 640 37,000  Level FlightAware
06:26AM 34.7770 29.4540 117° Southeast 556 640 37,000  Level FlightAware
06:27AM 34.7330 29.5630 116° Southeast 558 642 37,000  Level FlightAware
06:27AM 34.6900 29.6660 117° Southeast 555 639 37,000  Level FlightAware
06:28AM 34.6580 29.7440 116° Southeast 556 640 37,000  Level FlightAware
06:29AM 34.6020 29.8810 116° Southeast 555 639 37,000  Level FlightAware
06:29AM 34.5520 30.0060 116° Southeast 554 638 37,000  Level FlightAware
06:30AM 34.5190 30.0920 115° Southeast 554 638 37,000  Level FlightAware
06:31AM 34.4470 30.2340 122° Southeast 551 634 37,000  Level FlightAware
06:31AM 34.4010 30.3310 120° Southeast 551 634 37,000  Level FlightAware
06:32AM 34.3580 30.4230 119° Southeast 550 633 37,000  Level FlightAware
06:32AM 34.3140 30.5170 120° Southeast 549 632 37,000  Level FlightAware
06:33AM 34.2690 30.6110 120° Southeast 536 617 37,000  Level FlightAware
06:34AM 34.2270 30.6990 120° Southeast 530 610 37,000  Level FlightAware
06:34AM 34.1830 30.7910 120° Southeast 529 609 37,000  Level FlightAware
06:35AM 34.1400 30.8810 120° Southeast 527 606 37,000  Level FlightAware
06:35AM 34.0990 30.9660 120° Southeast 526 605 37,000  Level FlightAware
06:36AM 34.0520 31.0630 120° Southeast 526 605 37,000  Level FlightAware
06:36AM 34.0080 31.1540 120° Southeast 524 603 37,000  Level FlightAware
06:37AM 33.9620 31.2490 120° Southeast 524 603 37,000  Level FlightAware
06:38AM 33.9150 31.3450 121° Southeast 525 604 37,000  Level FlightAware
06:38AM 33.8710 31.4370 120° Southeast 525 604 37,000  Level FlightAware
06:39AM 33.8300 31.5200 121° Southeast 526 605 37,000  Level FlightAware
06:40AM 33.7830 31.6150 121° Southeast 531 611 37,000  Level FlightAware
06:40AM 33.7370 31.7060 121° Southeast 531 611 37,000  Level FlightAware
06:41AM 33.6870 31.8070 121° Southeast 532 612 37,000  Level FlightAware
06:41AM 33.6410 31.8990 121° Southeast 528 608 37,000  Level FlightAware
06:42AM 33.6000 31.9840 120° Southeast 528 608 37,000  Level FlightAware
06:43AM 33.5550 32.0760 120° Southeast 526 605 37,000  Level FlightAware
06:43AM 33.5110 32.1640 121° Southeast 525 604 37,000  Level FlightAware
06:44AM 33.4660 32.2550 121° Southeast 524 603 37,000  Level FlightAware
06:44AM 33.4230 32.3420 121° Southeast 527 606 37,000  Level FlightAware
06:45AM 33.3840 32.4190 121° Southeast 527 606 37,000 -180 Level FlightAware
06:45AM 33.3350 32.5150 121° Southeast 525 604 36,800 -780 Descending FlightAware
06:46AM 33.2940 32.5960 121° Southeast 526 605 36,100 -1,380 Descending FlightAware
06:47AM 33.2450 32.6920 121° Southeast 528 608 35,200 -1,980 Descending FlightAware
06:47AM 33.2060 32.7680 122° Southeast 527 606 33,800 -2,580 Descending FlightAware
06:48AM 33.1540 32.8690 122° Southeast 530 610 32,200 -2,340 Descending FlightAware
06:48AM 33.1160 32.9420 122° Southeast 510 587 31,200 -900 Descending FlightAware
06:49AM 33.0750 33.0240 121° Southeast 510 587 31,200 -2,280 Level FlightAware
06:50AM 33.0230 33.1210 123° Southeast 488 562 28,400 -2,700 Descending FlightAware
06:50AM 32.9690 33.2250 122° Southeast 482 555 27,500 -2,100 Descending FlightAware
06:51AM 32.9260 33.3060 122° Southeast 442 509 25,500 -2,820 Descending FlightAware
06:52AM 32.8910 33.3710 123° Southeast 433 498 24,400 -2,040 Descending FlightAware
06:52AM 32.8500 33.4500 122° Southeast 425 489 23,100 -1,920 Descending FlightAware
06:53AM 32.8160 33.5140 122° Southeast 417 480 22,100 -1,860 Descending FlightAware
06:53AM 32.7810 33.5820 121° Southeast 409 471 21,000 -1,860 Descending FlightAware
06:54AM 32.7430 33.6530 122° Southeast 402 463 19,900 -1,860 Descending FlightAware
06:54AM 32.7110 33.7150 122° Southeast 395 455 18,900 -1,800 Descending FlightAware
06:55AM 32.6760 33.7800 123° Southeast 388 447 17,900 -1,740 Descending FlightAware
06:56AM 32.6440 33.8410 122° Southeast 372 428 16,900 -1,620 Descending FlightAware
06:56AM 32.6100 33.9030 123° Southeast 348 400 16,000 -1,440 Descending FlightAware
06:57AM 32.5830 33.9520 123° Southeast 343 395 15,300 -1,440 Descending FlightAware
06:57AM 32.5530 34.0090 122° Southeast 336 387 14,400 -1,380 Descending FlightAware
06:58AM 32.5190 34.0650 126° Southeast 328 377 13,600 -1,260 Descending FlightAware
06:59AM 32.4870 34.1100 130° Southeast 320 368 12,900 -1,320 Descending FlightAware
06:59AM 32.4510 34.1560 133° Southeast 311 358 12,100 -1,260 Descending FlightAware
07:00AM 32.4180 34.1960 134° Southeast 306 352 11,500 -1,140 Descending FlightAware
07:00AM 32.3820 34.2380 135° Southeast 322 371 10,800 -1,260 Descending FlightAware
07:01AM 32.3440 34.2860 133° Southeast 317 365 10,000 -1,380 Descending FlightAware
07:01AM 32.3260 34.3090 133° Southeast 309 356 9,600 -1,200 Descending FlightAware
07:02AM 32.3050 34.3360 133° Southeast 298 343 9,200 -1,200 Descending FlightAware
07:02AM 32.2850 34.3630 131° Southeast 287 330 8,700 -660 Descending FlightAware
07:03AM 32.2590 34.3980 131° Southeast 290 334 8,600 -120 Descending FlightAware
07:03AM 32.2420 34.4220 130° Southeast 290 334 8,600  Level FlightAware
07:03AM 32.2240 34.4470 130° Southeast 290 334 8,600  Level FlightAware
07:04AM 32.2060 34.4710 132° Southeast 290 334 8,600  Level FlightAware
07:06AM 32.0838 34.7270 125° Southeast  Level FlightAware Approximate
07:07AM 32.0017 34.8639 125° Southeast  Level FlightAware Approximate
07:08AM 32.0000 34.8667 125° Southeast  Level FlightAware Approximate
07:09AM 32.0095 34.8769 125° Southeast  Level Estimated
07:10AM 32.0095 34.8769 125° Southeast  Level Estimated
07:11AM 32.0095 34.8769 125° Southeast  Level Estimated
07:12AM 32.0095 34.8769 125° Southeast  Level Estimated
07:13AM 32.0095 34.8769 125° Southeast  Level Estimated
07:14AM 32.0095 34.8769 125° Southeast  Level Estimated
07:15AM 32.0095 34.8769 125° Southeast  Level Estimated